sensor_id;sensor_type;location;lat;lon;timestamp;P1;durP1;ratioP1;P2;durP2;ratioP2
4274;SDS011;2151;50.988;11.068;2022-12-07T00:01:22;132.00;;;6.67;;
4274;SDS011;2151;50.988;11.068;2022-12-07T00:03:49;133.03;;;6.53;;
4274;SDS011;2151;50.988;11.068;2022-12-07T00:06:16;133.37;;;7.10;;
4274;SDS011;2151;50.988;11.068;2022-12-07T00:08:43;132.43;;;6.90;;
4274;SDS011;2151;50.988;11.068;2022-12-07T00:11:11;132.43;;;6.83;;
4274;SDS011;2151;50.988;11.068;2022-12-07T00:13:38;132.50;;;6.63;;
4274;SDS011;2151;50.988;11.068;2022-12-07T00:16:14;132.03;;;6.47;;
4274;SDS011;2151;50.988;11.068;2022-12-07T00:18:41;133.10;;;6.63;;
4274;SDS011;2151;50.988;11.068;2022-12-07T00:21:15;133.20;;;6.77;;
4274;SDS011;2151;50.988;11.068;2022-12-07T00:23:42;133.10;;;7.07;;
4274;SDS011;2151;50.988;11.068;2022-12-07T00:26:10;132.67;;;6.47;;
4274;SDS011;2151;50.988;11.068;2022-12-07T00:28:37;132.60;;;6.67;;
4274;SDS011;2151;50.988;11.068;2022-12-07T00:31:07;132.00;;;7.07;;
4274;SDS011;2151;50.988;11.068;2022-12-07T00:33:34;131.37;;;6.27;;
4274;SDS011;2151;50.988;11.068;2022-12-07T00:36:01;133.20;;;6.57;;
4274;SDS011;2151;50.988;11.068;2022-12-07T00:38:29;133.63;;;7.33;;
4274;SDS011;2151;50.988;11.068;2022-12-07T00:40:57;132.10;;;6.67;;
4274;SDS011;2151;50.988;11.068;2022-12-07T00:43:24;132.20;;;6.77;;
4274;SDS011;2151;50.988;11.068;2022-12-07T00:45:50;132.83;;;7.17;;
4274;SDS011;2151;50.988;11.068;2022-12-07T00:48:17;132.60;;;7.00;;
4274;SDS011;2151;50.988;11.068;2022-12-07T00:50:43;132.07;;;6.53;;
4274;SDS011;2151;50.988;11.068;2022-12-07T00:53:10;132.20;;;6.53;;
4274;SDS011;2151;50.988;11.068;2022-12-07T00:55:36;132.87;;;6.57;;
4274;SDS011;2151;50.988;11.068;2022-12-07T00:58:03;132.87;;;6.53;;
4274;SDS011;2151;50.988;11.068;2022-12-07T01:00:30;132.60;;;7.20;;
4274;SDS011;2151;50.988;11.068;2022-12-07T01:02:56;132.57;;;6.77;;
4274;SDS011;2151;50.988;11.068;2022-12-07T01:05:23;132.67;;;6.57;;
4274;SDS011;2151;50.988;11.068;2022-12-07T01:07:49;132.87;;;6.80;;
4274;SDS011;2151;50.988;11.068;2022-12-07T01:10:16;132.67;;;6.67;;
4274;SDS011;2151;50.988;11.068;2022-12-07T01:12:42;133.40;;;7.30;;
4274;SDS011;2151;50.988;11.068;2022-12-07T01:15:09;132.37;;;6.80;;
4274;SDS011;2151;50.988;11.068;2022-12-07T01:17:35;132.40;;;6.80;;
4274;SDS011;2151;50.988;11.068;2022-12-07T01:20:02;132.67;;;6.87;;
4274;SDS011;2151;50.988;11.068;2022-12-07T01:22:29;133.07;;;6.67;;
4274;SDS011;2151;50.988;11.068;2022-12-07T01:24:55;133.47;;;6.67;;
4274;SDS011;2151;50.988;11.068;2022-12-07T01:27:22;133.17;;;6.73;;
4274;SDS011;2151;50.988;11.068;2022-12-07T01:29:48;132.67;;;6.63;;
4274;SDS011;2151;50.988;11.068;2022-12-07T01:32:14;132.77;;;6.80;;
4274;SDS011;2151;50.988;11.068;2022-12-07T01:34:41;132.50;;;7.00;;
4274;SDS011;2151;50.988;11.068;2022-12-07T01:37:07;133.43;;;6.73;;
4274;SDS011;2151;50.988;11.068;2022-12-07T01:39:33;132.13;;;6.50;;
4274;SDS011;2151;50.988;11.068;2022-12-07T01:42:01;132.30;;;6.77;;
4274;SDS011;2151;50.988;11.068;2022-12-07T01:44:28;133.37;;;6.77;;
4274;SDS011;2151;50.988;11.068;2022-12-07T01:46:59;132.33;;;6.67;;
4274;SDS011;2151;50.988;11.068;2022-12-07T01:49:37;132.77;;;6.87;;
4274;SDS011;2151;50.988;11.068;2022-12-07T01:52:13;132.57;;;6.83;;
4274;SDS011;2151;50.988;11.068;2022-12-07T01:54:41;132.30;;;7.13;;
4274;SDS011;2151;50.988;11.068;2022-12-07T01:57:08;132.37;;;6.37;;
4274;SDS011;2151;50.988;11.068;2022-12-07T01:59:35;132.87;;;6.77;;
4274;SDS011;2151;50.988;11.068;2022-12-07T02:02:05;132.87;;;6.83;;
4274;SDS011;2151;50.988;11.068;2022-12-07T02:04:35;132.00;;;6.63;;
4274;SDS011;2151;50.988;11.068;2022-12-07T02:07:02;133.07;;;6.87;;
4274;SDS011;2151;50.988;11.068;2022-12-07T02:09:29;133.07;;;7.20;;
4274;SDS011;2151;50.988;11.068;2022-12-07T02:11:56;131.70;;;6.77;;
4274;SDS011;2151;50.988;11.068;2022-12-07T02:14:22;132.70;;;6.83;;
4274;SDS011;2151;50.988;11.068;2022-12-07T02:27:23;132.97;;;6.70;;
4274;SDS011;2151;50.988;11.068;2022-12-07T02:32:26;132.87;;;6.77;;
4274;SDS011;2151;50.988;11.068;2022-12-07T02:34:55;132.60;;;6.67;;
4274;SDS011;2151;50.988;11.068;2022-12-07T02:40:31;133.47;;;7.30;;
4274;SDS011;2151;50.988;11.068;2022-12-07T02:43:19;133.17;;;6.60;;
4274;SDS011;2151;50.988;11.068;2022-12-07T02:45:46;132.60;;;6.83;;
4274;SDS011;2151;50.988;11.068;2022-12-07T02:48:14;132.10;;;6.87;;
4274;SDS011;2151;50.988;11.068;2022-12-07T02:50:59;132.60;;;6.87;;
4274;SDS011;2151;50.988;11.068;2022-12-07T02:53:32;133.03;;;7.07;;
4274;SDS011;2151;50.988;11.068;2022-12-07T02:56:24;132.77;;;7.10;;
4274;SDS011;2151;50.988;11.068;2022-12-07T02:58:54;132.47;;;6.53;;
4274;SDS011;2151;50.988;11.068;2022-12-07T03:06:53;132.70;;;6.77;;
4274;SDS011;2151;50.988;11.068;2022-12-07T03:09:32;133.13;;;6.77;;
4274;SDS011;2151;50.988;11.068;2022-12-07T03:12:12;131.90;;;6.27;;
4274;SDS011;2151;50.988;11.068;2022-12-07T03:14:41;133.07;;;6.67;;
4274;SDS011;2151;50.988;11.068;2022-12-07T03:17:16;132.50;;;6.47;;
4274;SDS011;2151;50.988;11.068;2022-12-07T03:19:44;132.40;;;6.37;;
4274;SDS011;2151;50.988;11.068;2022-12-07T03:22:12;132.63;;;6.47;;
4274;SDS011;2151;50.988;11.068;2022-12-07T03:24:45;132.10;;;6.77;;
4274;SDS011;2151;50.988;11.068;2022-12-07T03:27:23;132.70;;;6.40;;
4274;SDS011;2151;50.988;11.068;2022-12-07T03:29:54;133.10;;;6.43;;
4274;SDS011;2151;50.988;11.068;2022-12-07T03:37:57;132.27;;;6.57;;
4274;SDS011;2151;50.988;11.068;2022-12-07T03:40:36;132.90;;;6.77;;
4274;SDS011;2151;50.988;11.068;2022-12-07T03:43:03;133.30;;;6.77;;
4274;SDS011;2151;50.988;11.068;2022-12-07T03:48:25;132.67;;;6.50;;
4274;SDS011;2151;50.988;11.068;2022-12-07T03:50:58;132.47;;;6.57;;
4274;SDS011;2151;50.988;11.068;2022-12-07T03:55:59;132.63;;;6.80;;
4274;SDS011;2151;50.988;11.068;2022-12-07T03:58:26;132.60;;;6.80;;
4274;SDS011;2151;50.988;11.068;2022-12-07T04:00:53;133.03;;;6.63;;
4274;SDS011;2151;50.988;11.068;2022-12-07T04:03:20;132.30;;;6.57;;
4274;SDS011;2151;50.988;11.068;2022-12-07T04:05:46;132.23;;;6.47;;
4274;SDS011;2151;50.988;11.068;2022-12-07T04:08:13;131.90;;;6.53;;
4274;SDS011;2151;50.988;11.068;2022-12-07T04:10:39;132.20;;;6.37;;
4274;SDS011;2151;50.988;11.068;2022-12-07T04:13:06;132.47;;;6.53;;
4274;SDS011;2151;50.988;11.068;2022-12-07T04:15:32;132.50;;;6.47;;
4274;SDS011;2151;50.988;11.068;2022-12-07T04:17:59;131.87;;;6.57;;
4274;SDS011;2151;50.988;11.068;2022-12-07T04:20:25;132.10;;;6.60;;
4274;SDS011;2151;50.988;11.068;2022-12-07T04:22:51;131.80;;;6.50;;
4274;SDS011;2151;50.988;11.068;2022-12-07T04:25:18;132.33;;;6.40;;
4274;SDS011;2151;50.988;11.068;2022-12-07T04:27:44;131.80;;;6.27;;
4274;SDS011;2151;50.988;11.068;2022-12-07T04:30:11;131.70;;;6.23;;
4274;SDS011;2151;50.988;11.068;2022-12-07T04:32:37;132.37;;;6.53;;
4274;SDS011;2151;50.988;11.068;2022-12-07T04:35:04;133.23;;;7.63;;
4274;SDS011;2151;50.988;11.068;2022-12-07T04:37:30;131.53;;;6.27;;
4274;SDS011;2151;50.988;11.068;2022-12-07T04:39:57;131.43;;;6.13;;
4274;SDS011;2151;50.988;11.068;2022-12-07T04:42:23;131.83;;;6.27;;
4274;SDS011;2151;50.988;11.068;2022-12-07T04:44:49;132.37;;;6.43;;
4274;SDS011;2151;50.988;11.068;2022-12-07T04:47:17;131.70;;;6.27;;
4274;SDS011;2151;50.988;11.068;2022-12-07T04:49:43;132.27;;;6.40;;
4274;SDS011;2151;50.988;11.068;2022-12-07T04:52:09;131.73;;;6.23;;
4274;SDS011;2151;50.988;11.068;2022-12-07T04:54:36;132.27;;;6.47;;
4274;SDS011;2151;50.988;11.068;2022-12-07T04:57:02;131.33;;;6.17;;
4274;SDS011;2151;50.988;11.068;2022-12-07T04:59:28;131.57;;;6.27;;
4274;SDS011;2151;50.988;11.068;2022-12-07T05:01:55;130.97;;;6.30;;
4274;SDS011;2151;50.988;11.068;2022-12-07T05:04:21;131.80;;;6.33;;
4274;SDS011;2151;50.988;11.068;2022-12-07T05:06:47;130.20;;;6.13;;
4274;SDS011;2151;50.988;11.068;2022-12-07T05:09:14;131.80;;;6.23;;
4274;SDS011;2151;50.988;11.068;2022-12-07T05:11:40;131.90;;;6.23;;
4274;SDS011;2151;50.988;11.068;2022-12-07T05:16:34;131.97;;;6.47;;
4274;SDS011;2151;50.988;11.068;2022-12-07T05:19:00;131.77;;;6.60;;
4274;SDS011;2151;50.988;11.068;2022-12-07T05:21:27;131.30;;;6.23;;
4274;SDS011;2151;50.988;11.068;2022-12-07T05:23:53;130.57;;;6.33;;
4274;SDS011;2151;50.988;11.068;2022-12-07T05:26:20;131.23;;;6.17;;
4274;SDS011;2151;50.988;11.068;2022-12-07T05:28:49;131.83;;;6.77;;
4274;SDS011;2151;50.988;11.068;2022-12-07T05:31:16;132.07;;;6.20;;
4274;SDS011;2151;50.988;11.068;2022-12-07T05:33:42;131.50;;;6.27;;
4274;SDS011;2151;50.988;11.068;2022-12-07T05:36:09;131.70;;;6.67;;
4274;SDS011;2151;50.988;11.068;2022-12-07T05:38:35;132.60;;;6.47;;
4274;SDS011;2151;50.988;11.068;2022-12-07T05:41:02;130.70;;;6.30;;
4274;SDS011;2151;50.988;11.068;2022-12-07T05:43:29;130.87;;;6.23;;
4274;SDS011;2151;50.988;11.068;2022-12-07T05:45:56;132.00;;;6.20;;
4274;SDS011;2151;50.988;11.068;2022-12-07T05:48:23;132.73;;;6.90;;
4274;SDS011;2151;50.988;11.068;2022-12-07T05:50:50;131.73;;;6.07;;
4274;SDS011;2151;50.988;11.068;2022-12-07T05:53:17;131.67;;;6.43;;
4274;SDS011;2151;50.988;11.068;2022-12-07T05:55:48;131.10;;;6.23;;
4274;SDS011;2151;50.988;11.068;2022-12-07T05:58:15;132.60;;;6.60;;
4274;SDS011;2151;50.988;11.068;2022-12-07T06:01:00;131.80;;;6.70;;
4274;SDS011;2151;50.988;11.068;2022-12-07T06:03:26;131.63;;;6.60;;
4274;SDS011;2151;50.988;11.068;2022-12-07T06:05:52;131.40;;;6.80;;
4274;SDS011;2151;50.988;11.068;2022-12-07T06:08:19;131.57;;;5.93;;
4274;SDS011;2151;50.988;11.068;2022-12-07T06:10:46;131.17;;;6.17;;
4274;SDS011;2151;50.988;11.068;2022-12-07T06:13:12;131.40;;;6.47;;
4274;SDS011;2151;50.988;11.068;2022-12-07T06:15:39;131.80;;;6.30;;
4274;SDS011;2151;50.988;11.068;2022-12-07T06:18:05;131.57;;;6.17;;
4274;SDS011;2151;50.988;11.068;2022-12-07T06:20:31;131.57;;;6.20;;
4274;SDS011;2151;50.988;11.068;2022-12-07T06:22:58;131.57;;;6.33;;
4274;SDS011;2151;50.988;11.068;2022-12-07T06:25:24;131.87;;;5.97;;
4274;SDS011;2151;50.988;11.068;2022-12-07T06:27:51;131.67;;;6.40;;
4274;SDS011;2151;50.988;11.068;2022-12-07T06:30:17;131.40;;;6.17;;
4274;SDS011;2151;50.988;11.068;2022-12-07T06:32:43;130.97;;;6.07;;
4274;SDS011;2151;50.988;11.068;2022-12-07T06:35:10;131.53;;;6.27;;
4274;SDS011;2151;50.988;11.068;2022-12-07T06:37:36;131.63;;;6.00;;
4274;SDS011;2151;50.988;11.068;2022-12-07T06:40:03;130.27;;;6.13;;
4274;SDS011;2151;50.988;11.068;2022-12-07T06:42:30;132.47;;;6.80;;
4274;SDS011;2151;50.988;11.068;2022-12-07T06:44:56;132.00;;;6.73;;
4274;SDS011;2151;50.988;11.068;2022-12-07T06:47:22;131.53;;;6.17;;
4274;SDS011;2151;50.988;11.068;2022-12-07T06:50:06;131.70;;;6.30;;
4274;SDS011;2151;50.988;11.068;2022-12-07T06:52:33;130.97;;;6.37;;
4274;SDS011;2151;50.988;11.068;2022-12-07T06:55:00;131.30;;;6.37;;
4274;SDS011;2151;50.988;11.068;2022-12-07T06:57:26;131.07;;;6.40;;
4274;SDS011;2151;50.988;11.068;2022-12-07T06:59:53;131.60;;;6.17;;
4274;SDS011;2151;50.988;11.068;2022-12-07T07:02:19;131.37;;;6.10;;
4274;SDS011;2151;50.988;11.068;2022-12-07T07:04:45;131.87;;;6.23;;
4274;SDS011;2151;50.988;11.068;2022-12-07T07:07:12;131.40;;;6.10;;
4274;SDS011;2151;50.988;11.068;2022-12-07T07:09:38;131.70;;;6.03;;
4274;SDS011;2151;50.988;11.068;2022-12-07T07:12:06;132.27;;;6.17;;
4274;SDS011;2151;50.988;11.068;2022-12-07T07:14:32;131.50;;;6.07;;
4274;SDS011;2151;50.988;11.068;2022-12-07T07:16:59;130.57;;;6.30;;
4274;SDS011;2151;50.988;11.068;2022-12-07T07:19:25;129.83;;;6.17;;
4274;SDS011;2151;50.988;11.068;2022-12-07T07:21:53;132.07;;;6.27;;
4274;SDS011;2151;50.988;11.068;2022-12-07T07:24:19;131.47;;;6.20;;
4274;SDS011;2151;50.988;11.068;2022-12-07T07:26:45;130.90;;;6.20;;
4274;SDS011;2151;50.988;11.068;2022-12-07T07:29:12;131.77;;;6.27;;
4274;SDS011;2151;50.988;11.068;2022-12-07T07:31:38;131.37;;;6.27;;
4274;SDS011;2151;50.988;11.068;2022-12-07T07:34:04;131.77;;;7.20;;
4274;SDS011;2151;50.988;11.068;2022-12-07T07:36:32;130.60;;;6.10;;
4274;SDS011;2151;50.988;11.068;2022-12-07T07:38:58;132.00;;;6.60;;
4274;SDS011;2151;50.988;11.068;2022-12-07T07:41:25;131.40;;;6.27;;
4274;SDS011;2151;50.988;11.068;2022-12-07T07:43:51;131.67;;;6.07;;
4274;SDS011;2151;50.988;11.068;2022-12-07T07:46:17;130.57;;;6.27;;
4274;SDS011;2151;50.988;11.068;2022-12-07T07:48:44;131.47;;;6.00;;
4274;SDS011;2151;50.988;11.068;2022-12-07T07:51:10;131.43;;;5.93;;
4274;SDS011;2151;50.988;11.068;2022-12-07T07:53:36;131.53;;;6.37;;
4274;SDS011;2151;50.988;11.068;2022-12-07T07:56:03;131.20;;;6.20;;
4274;SDS011;2151;50.988;11.068;2022-12-07T07:58:29;131.37;;;6.30;;
4274;SDS011;2151;50.988;11.068;2022-12-07T08:00:56;131.37;;;6.17;;
4274;SDS011;2151;50.988;11.068;2022-12-07T08:03:22;130.80;;;5.93;;
4274;SDS011;2151;50.988;11.068;2022-12-07T08:05:49;130.77;;;5.97;;
4274;SDS011;2151;50.988;11.068;2022-12-07T08:08:15;131.10;;;6.27;;
4274;SDS011;2151;50.988;11.068;2022-12-07T08:10:42;130.73;;;6.23;;
4274;SDS011;2151;50.988;11.068;2022-12-07T08:13:08;130.77;;;6.03;;
4274;SDS011;2151;50.988;11.068;2022-12-07T08:15:40;130.53;;;6.07;;
4274;SDS011;2151;50.988;11.068;2022-12-07T08:18:07;131.17;;;6.20;;
4274;SDS011;2151;50.988;11.068;2022-12-07T08:20:34;130.80;;;6.33;;
4274;SDS011;2151;50.988;11.068;2022-12-07T08:23:01;131.57;;;6.30;;
4274;SDS011;2151;50.988;11.068;2022-12-07T08:25:27;131.13;;;6.43;;
4274;SDS011;2151;50.988;11.068;2022-12-07T08:27:54;131.27;;;6.30;;
4274;SDS011;2151;50.988;11.068;2022-12-07T08:30:20;131.77;;;6.37;;
4274;SDS011;2151;50.988;11.068;2022-12-07T08:32:48;131.47;;;6.50;;
4274;SDS011;2151;50.988;11.068;2022-12-07T08:35:14;131.27;;;5.97;;
4274;SDS011;2151;50.988;11.068;2022-12-07T08:37:41;131.27;;;5.93;;
4274;SDS011;2151;50.988;11.068;2022-12-07T08:40:08;131.47;;;6.13;;
4274;SDS011;2151;50.988;11.068;2022-12-07T08:42:35;131.00;;;6.43;;
4274;SDS011;2151;50.988;11.068;2022-12-07T08:45:10;130.53;;;6.57;;
4274;SDS011;2151;50.988;11.068;2022-12-07T08:47:37;130.87;;;6.60;;
4274;SDS011;2151;50.988;11.068;2022-12-07T08:50:05;130.77;;;6.17;;
4274;SDS011;2151;50.988;11.068;2022-12-07T08:52:33;130.87;;;6.30;;
4274;SDS011;2151;50.988;11.068;2022-12-07T08:55:00;129.47;;;6.13;;
4274;SDS011;2151;50.988;11.068;2022-12-07T08:57:27;130.47;;;6.20;;
4274;SDS011;2151;50.988;11.068;2022-12-07T08:59:54;131.27;;;6.47;;
4274;SDS011;2151;50.988;11.068;2022-12-07T09:02:20;130.13;;;6.57;;
4274;SDS011;2151;50.988;11.068;2022-12-07T09:04:46;130.67;;;6.07;;
4274;SDS011;2151;50.988;11.068;2022-12-07T09:07:13;130.77;;;6.07;;
4274;SDS011;2151;50.988;11.068;2022-12-07T09:09:39;130.33;;;6.23;;
4274;SDS011;2151;50.988;11.068;2022-12-07T09:12:06;130.00;;;6.83;;
4274;SDS011;2151;50.988;11.068;2022-12-07T09:14:32;130.47;;;6.50;;
4274;SDS011;2151;50.988;11.068;2022-12-07T09:17:09;129.80;;;6.17;;
4274;SDS011;2151;50.988;11.068;2022-12-07T09:19:36;130.60;;;6.43;;
4274;SDS011;2151;50.988;11.068;2022-12-07T09:22:03;130.67;;;6.27;;
4274;SDS011;2151;50.988;11.068;2022-12-07T09:24:31;130.57;;;6.37;;
4274;SDS011;2151;50.988;11.068;2022-12-07T09:26:58;130.37;;;6.43;;
4274;SDS011;2151;50.988;11.068;2022-12-07T09:29:24;129.20;;;6.10;;
4274;SDS011;2151;50.988;11.068;2022-12-07T09:31:51;129.70;;;6.33;;
4274;SDS011;2151;50.988;11.068;2022-12-07T09:34:18;130.60;;;6.43;;
4274;SDS011;2151;50.988;11.068;2022-12-07T09:36:44;130.80;;;6.50;;
4274;SDS011;2151;50.988;11.068;2022-12-07T09:39:11;130.47;;;6.10;;
4274;SDS011;2151;50.988;11.068;2022-12-07T09:41:38;129.77;;;6.33;;
4274;SDS011;2151;50.988;11.068;2022-12-07T09:44:13;129.27;;;6.27;;
4274;SDS011;2151;50.988;11.068;2022-12-07T09:46:40;129.60;;;6.20;;
4274;SDS011;2151;50.988;11.068;2022-12-07T09:49:10;129.20;;;6.27;;
4274;SDS011;2151;50.988;11.068;2022-12-07T09:51:38;130.00;;;6.63;;
4274;SDS011;2151;50.988;11.068;2022-12-07T09:54:04;130.67;;;6.33;;
4274;SDS011;2151;50.988;11.068;2022-12-07T09:56:30;129.80;;;6.27;;
4274;SDS011;2151;50.988;11.068;2022-12-07T09:58:59;129.67;;;6.03;;
4274;SDS011;2151;50.988;11.068;2022-12-07T10:01:28;129.97;;;6.10;;
4274;SDS011;2151;50.988;11.068;2022-12-07T10:03:59;129.67;;;5.97;;
4274;SDS011;2151;50.988;11.068;2022-12-07T10:06:27;130.20;;;6.30;;
4274;SDS011;2151;50.988;11.068;2022-12-07T10:08:54;130.07;;;6.13;;
4274;SDS011;2151;50.988;11.068;2022-12-07T10:11:20;129.20;;;6.23;;
4274;SDS011;2151;50.988;11.068;2022-12-07T10:13:48;129.27;;;6.00;;
4274;SDS011;2151;50.988;11.068;2022-12-07T10:18:51;129.37;;;6.43;;
4274;SDS011;2151;50.988;11.068;2022-12-07T10:21:18;129.20;;;5.97;;
4274;SDS011;2151;50.988;11.068;2022-12-07T10:26:28;130.20;;;6.37;;
4274;SDS011;2151;50.988;11.068;2022-12-07T10:28:55;129.27;;;6.23;;
4274;SDS011;2151;50.988;11.068;2022-12-07T10:31:24;129.43;;;6.40;;
4274;SDS011;2151;50.988;11.068;2022-12-07T10:36:21;128.90;;;6.43;;
4274;SDS011;2151;50.988;11.068;2022-12-07T10:39:03;129.27;;;6.53;;
4274;SDS011;2151;50.988;11.068;2022-12-07T10:41:29;129.37;;;6.57;;
4274;SDS011;2151;50.988;11.068;2022-12-07T10:43:56;128.87;;;6.77;;
4274;SDS011;2151;50.988;11.068;2022-12-07T10:48:53;128.87;;;6.13;;
4274;SDS011;2151;50.988;11.068;2022-12-07T10:51:30;129.30;;;6.37;;
4274;SDS011;2151;50.988;11.068;2022-12-07T10:54:30;127.97;;;6.10;;
4274;SDS011;2151;50.988;11.068;2022-12-07T10:57:21;129.07;;;6.23;;
4274;SDS011;2151;50.988;11.068;2022-12-07T10:59:58;129.43;;;6.30;;
4274;SDS011;2151;50.988;11.068;2022-12-07T11:03:12;129.07;;;6.70;;
4274;SDS011;2151;50.988;11.068;2022-12-07T11:20:42;128.37;;;6.07;;
4274;SDS011;2151;50.988;11.068;2022-12-07T11:23:16;129.30;;;6.20;;
4274;SDS011;2151;50.988;11.068;2022-12-07T11:25:49;128.67;;;6.40;;
4274;SDS011;2151;50.988;11.068;2022-12-07T11:28:36;129.00;;;6.40;;
4274;SDS011;2151;50.988;11.068;2022-12-07T11:31:08;128.67;;;6.37;;
4274;SDS011;2151;50.988;11.068;2022-12-07T11:33:53;128.97;;;6.23;;
4274;SDS011;2151;50.988;11.068;2022-12-07T11:36:40;129.27;;;6.17;;
4274;SDS011;2151;50.988;11.068;2022-12-07T11:41:40;129.07;;;6.80;;
4274;SDS011;2151;50.988;11.068;2022-12-07T11:44:16;128.07;;;6.00;;
4274;SDS011;2151;50.988;11.068;2022-12-07T11:46:57;142.57;;;12.63;;
4274;SDS011;2151;50.988;11.068;2022-12-07T11:52:02;127.83;;;5.73;;
4274;SDS011;2151;50.988;11.068;2022-12-07T11:54:32;127.70;;;6.10;;
4274;SDS011;2151;50.988;11.068;2022-12-07T11:57:07;128.03;;;5.87;;
4274;SDS011;2151;50.988;11.068;2022-12-07T11:59:45;128.07;;;6.17;;
4274;SDS011;2151;50.988;11.068;2022-12-07T12:02:16;128.97;;;6.57;;
4274;SDS011;2151;50.988;11.068;2022-12-07T12:07:10;129.00;;;6.07;;
4274;SDS011;2151;50.988;11.068;2022-12-07T12:10:02;128.33;;;6.33;;
4274;SDS011;2151;50.988;11.068;2022-12-07T12:21:07;129.47;;;6.47;;
4274;SDS011;2151;50.988;11.068;2022-12-07T12:23:36;129.57;;;6.20;;
4274;SDS011;2151;50.988;11.068;2022-12-07T12:26:05;129.30;;;6.37;;
4274;SDS011;2151;50.988;11.068;2022-12-07T12:28:38;130.27;;;6.33;;
4274;SDS011;2151;50.988;11.068;2022-12-07T12:31:14;130.07;;;6.43;;
4274;SDS011;2151;50.988;11.068;2022-12-07T12:33:44;130.57;;;6.77;;
4274;SDS011;2151;50.988;11.068;2022-12-07T12:46:53;128.40;;;6.30;;
4274;SDS011;2151;50.988;11.068;2022-12-07T13:01:56;128.90;;;6.37;;
4274;SDS011;2151;50.988;11.068;2022-12-07T13:04:24;129.27;;;6.50;;
4274;SDS011;2151;50.988;11.068;2022-12-07T13:06:51;129.33;;;6.33;;
4274;SDS011;2151;50.988;11.068;2022-12-07T13:09:28;130.23;;;6.33;;
4274;SDS011;2151;50.988;11.068;2022-12-07T13:11:56;130.07;;;6.37;;
4274;SDS011;2151;50.988;11.068;2022-12-07T13:14:43;130.30;;;6.50;;
4274;SDS011;2151;50.988;11.068;2022-12-07T13:20:03;128.60;;;6.30;;
4274;SDS011;2151;50.988;11.068;2022-12-07T13:27:26;129.57;;;6.27;;
4274;SDS011;2151;50.988;11.068;2022-12-07T13:29:54;129.87;;;6.27;;
4274;SDS011;2151;50.988;11.068;2022-12-07T13:32:28;129.47;;;6.67;;
4274;SDS011;2151;50.988;11.068;2022-12-07T13:34:56;129.87;;;6.23;;
4274;SDS011;2151;50.988;11.068;2022-12-07T13:39:49;129.87;;;6.63;;
4274;SDS011;2151;50.988;11.068;2022-12-07T13:44:46;129.87;;;6.53;;
4274;SDS011;2151;50.988;11.068;2022-12-07T13:47:32;129.97;;;6.53;;
4274;SDS011;2151;50.988;11.068;2022-12-07T13:50:15;129.90;;;6.63;;
4274;SDS011;2151;50.988;11.068;2022-12-07T13:52:46;129.40;;;6.10;;
4274;SDS011;2151;50.988;11.068;2022-12-07T13:55:15;130.17;;;6.50;;
4274;SDS011;2151;50.988;11.068;2022-12-07T13:57:42;130.27;;;6.00;;
4274;SDS011;2151;50.988;11.068;2022-12-07T14:00:15;130.00;;;6.20;;
4274;SDS011;2151;50.988;11.068;2022-12-07T14:02:54;129.27;;;6.30;;
4274;SDS011;2151;50.988;11.068;2022-12-07T14:05:25;130.70;;;6.70;;
4274;SDS011;2151;50.988;11.068;2022-12-07T14:10:23;130.17;;;6.37;;
4274;SDS011;2151;50.988;11.068;2022-12-07T14:12:50;130.00;;;6.33;;
4274;SDS011;2151;50.988;11.068;2022-12-07T14:15:21;129.80;;;6.17;;
4274;SDS011;2151;50.988;11.068;2022-12-07T14:17:52;128.77;;;6.07;;
4274;SDS011;2151;50.988;11.068;2022-12-07T14:23:24;130.37;;;6.33;;
4274;SDS011;2151;50.988;11.068;2022-12-07T14:25:51;129.80;;;6.33;;
4274;SDS011;2151;50.988;11.068;2022-12-07T14:28:25;129.83;;;6.17;;
4274;SDS011;2151;50.988;11.068;2022-12-07T14:30:52;129.87;;;6.27;;
4274;SDS011;2151;50.988;11.068;2022-12-07T14:33:18;129.60;;;6.57;;
4274;SDS011;2151;50.988;11.068;2022-12-07T14:35:46;130.27;;;6.43;;
4274;SDS011;2151;50.988;11.068;2022-12-07T14:38:13;130.07;;;6.33;;
4274;SDS011;2151;50.988;11.068;2022-12-07T14:40:39;129.57;;;6.23;;
4274;SDS011;2151;50.988;11.068;2022-12-07T14:43:09;130.07;;;6.47;;
4274;SDS011;2151;50.988;11.068;2022-12-07T14:45:36;130.07;;;6.17;;
4274;SDS011;2151;50.988;11.068;2022-12-07T14:48:03;129.87;;;6.23;;
4274;SDS011;2151;50.988;11.068;2022-12-07T14:50:51;130.07;;;6.17;;
4274;SDS011;2151;50.988;11.068;2022-12-07T14:53:48;130.20;;;6.30;;
4274;SDS011;2151;50.988;11.068;2022-12-07T14:56:22;130.40;;;6.40;;
4274;SDS011;2151;50.988;11.068;2022-12-07T14:58:48;130.27;;;6.67;;
4274;SDS011;2151;50.988;11.068;2022-12-07T15:01:15;129.90;;;6.40;;
4274;SDS011;2151;50.988;11.068;2022-12-07T15:03:41;130.53;;;6.47;;
4274;SDS011;2151;50.988;11.068;2022-12-07T15:06:10;130.50;;;6.57;;
4274;SDS011;2151;50.988;11.068;2022-12-07T15:08:39;130.30;;;6.40;;
4274;SDS011;2151;50.988;11.068;2022-12-07T15:11:05;130.87;;;6.47;;
4274;SDS011;2151;50.988;11.068;2022-12-07T15:13:32;130.57;;;6.37;;
4274;SDS011;2151;50.988;11.068;2022-12-07T15:16:19;130.37;;;6.43;;
4274;SDS011;2151;50.988;11.068;2022-12-07T15:18:46;131.17;;;6.53;;
4274;SDS011;2151;50.988;11.068;2022-12-07T15:21:32;130.37;;;6.43;;
4274;SDS011;2151;50.988;11.068;2022-12-07T15:23:59;130.73;;;6.27;;
4274;SDS011;2151;50.988;11.068;2022-12-07T15:26:25;129.97;;;6.53;;
4274;SDS011;2151;50.988;11.068;2022-12-07T15:28:52;130.80;;;6.27;;
4274;SDS011;2151;50.988;11.068;2022-12-07T15:31:19;130.77;;;6.43;;
4274;SDS011;2151;50.988;11.068;2022-12-07T15:34:05;131.07;;;6.70;;
4274;SDS011;2151;50.988;11.068;2022-12-07T15:36:32;130.43;;;6.57;;
4274;SDS011;2151;50.988;11.068;2022-12-07T15:38:59;130.30;;;6.47;;
4274;SDS011;2151;50.988;11.068;2022-12-07T15:41:41;130.67;;;6.27;;
4274;SDS011;2151;50.988;11.068;2022-12-07T15:44:10;130.97;;;6.37;;
4274;SDS011;2151;50.988;11.068;2022-12-07T15:46:56;130.87;;;6.57;;
4274;SDS011;2151;50.988;11.068;2022-12-07T15:49:23;130.30;;;6.43;;
4274;SDS011;2151;50.988;11.068;2022-12-07T15:51:49;131.10;;;6.50;;
4274;SDS011;2151;50.988;11.068;2022-12-07T15:54:20;131.80;;;6.83;;
4274;SDS011;2151;50.988;11.068;2022-12-07T15:56:47;130.07;;;6.57;;
4274;SDS011;2151;50.988;11.068;2022-12-07T15:59:14;130.47;;;6.60;;
4274;SDS011;2151;50.988;11.068;2022-12-07T16:01:41;131.13;;;6.53;;
4274;SDS011;2151;50.988;11.068;2022-12-07T16:04:07;131.07;;;6.37;;
4274;SDS011;2151;50.988;11.068;2022-12-07T16:06:34;130.97;;;6.70;;
4274;SDS011;2151;50.988;11.068;2022-12-07T16:09:00;130.57;;;6.40;;
4274;SDS011;2151;50.988;11.068;2022-12-07T16:11:28;130.87;;;6.63;;
4274;SDS011;2151;50.988;11.068;2022-12-07T16:13:54;130.60;;;6.43;;
4274;SDS011;2151;50.988;11.068;2022-12-07T16:16:21;130.60;;;6.23;;
4274;SDS011;2151;50.988;11.068;2022-12-07T16:18:49;130.70;;;6.33;;
4274;SDS011;2151;50.988;11.068;2022-12-07T16:21:17;130.70;;;6.47;;
4274;SDS011;2151;50.988;11.068;2022-12-07T16:23:50;131.27;;;6.50;;
4274;SDS011;2151;50.988;11.068;2022-12-07T16:26:18;131.23;;;6.43;;
4274;SDS011;2151;50.988;11.068;2022-12-07T16:28:47;130.30;;;6.33;;
4274;SDS011;2151;50.988;11.068;2022-12-07T16:31:15;131.07;;;6.87;;
4274;SDS011;2151;50.988;11.068;2022-12-07T16:33:42;130.20;;;6.40;;
4274;SDS011;2151;50.988;11.068;2022-12-07T16:36:09;131.20;;;6.80;;
4274;SDS011;2151;50.988;11.068;2022-12-07T16:38:36;130.80;;;6.53;;
4274;SDS011;2151;50.988;11.068;2022-12-07T16:41:03;131.00;;;6.53;;
4274;SDS011;2151;50.988;11.068;2022-12-07T16:43:30;131.27;;;6.53;;